Time;durP1;ratioP1;P1;durP2;ratioP2;P2;SDS_P1;SDS_P2;PMS_P1;PMS_P2;Temp;Humidity;BMP_temperature;BMP_pressure;BME280_temperature;BME280_humidity;BME280_pressure;Samples;Min_cycle;Max_cycle;Signal;HPM_P1;HPM_P2
2022/09/17 00:01:58;;;;;;;0.00;0.00;;;;;;;15.58;100.00;99458.75;5004310;28;20038;-63
2022/09/17 00:04:24;;;;;;;0.25;0.00;;;;;;;15.51;100.00;99447.41;5005853;28;20022;-64
2022/09/17 00:06:49;;;;;;;0.10;0.00;;;;;;;15.50;100.00;99440.56;5006152;28;20527;-64
2022/09/17 00:09:15;;;;;;;0.00;0.00;;;;;;;15.56;100.00;99447.66;5005060;28;20045;-61
2022/09/17 00:11:42;;;;;;;0.30;0.00;;;;;;;15.78;100.00;99448.25;4989287;28;20037;-62
2022/09/17 00:14:13;;;;;;;0.10;0.00;;;;;;;15.69;100.00;99486.22;5005381;28;20120;-62
2022/09/17 00:16:42;;;;;;;0.10;0.00;;;;;;;15.44;100.00;99477.28;5006848;28;20508;-64
2022/09/17 00:19:13;;;;;;;0.90;0.00;;;;;;;15.23;100.00;99471.19;5010116;28;20026;-62
2022/09/17 00:21:40;;;;;;;0.10;0.00;;;;;;;15.05;100.00;99467.53;5009152;28;20083;-63
2022/09/17 00:24:05;;;;;;;0.00;0.00;;;;;;;14.91;100.00;99467.47;5009051;28;20125;-65
2022/09/17 00:26:32;;;;;;;0.88;0.00;;;;;;;15.07;100.00;99453.19;5007963;28;20042;-62
2022/09/17 00:28:59;;;;;;;0.47;0.00;;;;;;;15.18;100.00;99452.59;5009079;28;20030;-65
2022/09/17 00:31:25;;;;;;;0.57;0.00;;;;;;;15.15;100.00;99453.00;4986599;28;20496;-61
2022/09/17 00:33:51;;;;;;;0.00;0.00;;;;;;;15.05;100.00;99449.16;5006968;28;20523;-61
2022/09/17 00:36:19;;;;;;;0.20;0.03;;;;;;;14.97;100.00;99450.13;5008705;28;20018;-60
2022/09/17 00:38:48;;;;;;;0.10;0.00;;;;;;;14.87;100.00;99454.94;4988319;28;20072;-63
2022/09/17 00:41:14;;;;;;;0.43;0.08;;;;;;;14.82;100.00;99463.41;5005105;28;20505;-63
2022/09/17 00:43:43;;;;;;;0.17;0.00;;;;;;;14.78;100.00;99472.66;5010437;28;20034;-66
2022/09/17 00:46:36;;;;;;;0.55;0.00;;;;;;;14.75;100.00;99480.91;5007631;28;20070;-60
2022/09/17 00:49:13;;;;;;;1.85;0.03;;;;;;;14.75;100.00;99477.47;5007808;28;20068;-63
2022/09/17 00:51:48;;;;;;;0.10;0.10;;;;;;;14.82;100.00;99494.06;5008341;28;20056;-62
2022/09/17 00:54:14;;;;;;;0.00;0.00;;;;;;;15.19;100.00;99495.38;4990636;28;20541;-63
2022/09/17 00:56:42;;;;;;;1.13;0.10;;;;;;;15.65;100.00;99505.19;5010277;28;20123;-64
2022/09/17 00:59:08;;;;;;;1.88;0.00;;;;;;;15.54;100.00;99515.28;4989801;28;20026;-62
2022/09/17 01:01:35;;;;;;;0.10;0.00;;;;;;;15.63;100.00;99515.09;5007410;28;20037;-64
2022/09/17 01:04:00;;;;;;;0.30;0.00;;;;;;;15.72;100.00;99519.16;5010058;28;20543;-63
2022/09/17 01:06:35;;;;;;;0.00;0.00;;;;;;;15.62;100.00;99513.47;5007642;28;20030;-66
2022/09/17 01:09:16;;;;;;;0.00;0.00;;;;;;;15.69;100.00;99527.41;5004276;28;20042;-66
2022/09/17 01:12:25;;;;;;;0.38;0.00;;;;;;;15.67;93.43;99514.50;5008834;28;20034;-63
2022/09/17 01:15:25;;;;;;;0.00;0.00;;;;;;;15.84;87.80;99499.97;4989830;28;20038;-62
2022/09/17 01:18:00;;;;;;;0.10;0.00;;;;;;;15.93;92.67;99506.63;5008937;28;20379;-61
2022/09/17 01:20:25;;;;;;;0.00;0.00;;;;;;;15.89;95.84;99499.38;5008986;28;20391;-65
2022/09/17 01:23:06;;;;;;;0.00;0.00;;;;;;;15.87;88.60;99464.63;5004724;28;20112;-61
2022/09/17 01:25:41;;;;;;;0.00;0.00;;;;;;;15.84;88.01;99471.06;5010029;28;20084;-63
2022/09/17 01:28:09;;;;;;;0.00;0.00;;;;;;;15.96;91.83;99481.78;5009189;28;20496;-62
2022/09/17 01:30:43;;;;;;;0.00;0.00;;;;;;;16.02;89.69;99462.59;5008886;28;20567;-60
2022/09/17 01:33:27;;;;;;;0.00;0.00;;;;;;;16.03;85.83;99471.28;5007845;28;20401;-62
2022/09/17 01:36:22;;;;;;;0.00;0.00;;;;;;;16.06;85.70;99476.94;4995217;28;20129;-62
2022/09/17 01:39:12;;;;;;;0.00;0.00;;;;;;;16.00;89.28;99490.06;5005874;28;20108;-60
2022/09/17 01:41:41;;;;;;;1.65;0.00;;;;;;;15.93;89.48;99483.00;5011418;28;20039;-64
2022/09/17 01:44:25;;;;;;;0.00;0.00;;;;;;;15.94;82.72;99499.56;5009788;28;20126;-63
2022/09/17 01:47:02;;;;;;;0.57;0.00;;;;;;;16.10;84.03;99472.84;5004997;28;20029;-62
2022/09/17 01:49:31;;;;;;;0.00;0.00;;;;;;;16.13;81.12;99490.84;4990407;28;20516;-64
2022/09/17 01:51:59;;;;;;;0.00;0.00;;;;;;;16.04;84.16;99483.41;4998717;28;20080;-61
2022/09/17 01:54:32;;;;;;;0.00;0.00;;;;;;;16.24;78.00;99513.88;5007497;28;20036;-65
2022/09/17 01:57:07;;;;;;;0.03;0.00;;;;;;;16.31;79.83;99511.25;4989806;28;20052;-66
2022/09/17 01:59:43;;;;;;;0.00;0.00;;;;;;;16.46;78.54;99534.69;4990944;28;20048;-65
2022/09/17 02:02:23;;;;;;;0.10;0.00;;;;;;;16.38;78.10;99551.47;5006025;28;20092;-62
2022/09/17 02:05:01;;;;;;;0.32;0.00;;;;;;;16.13;80.98;99542.59;5009311;28;20053;-61
2022/09/17 02:07:29;;;;;;;0.00;0.00;;;;;;;15.97;87.76;99554.34;5006852;28;20034;-63
2022/09/17 02:10:02;;;;;;;0.20;0.00;;;;;;;15.54;92.23;99570.41;5006862;28;20056;-65
2022/09/17 02:12:34;;;;;;;0.05;0.00;;;;;;;15.52;89.67;99564.53;5007720;28;20468;-64
2022/09/17 02:15:05;;;;;;;0.00;0.00;;;;;;;15.53;88.65;99560.91;5006257;28;20025;-65
2022/09/17 02:17:37;;;;;;;1.27;0.00;;;;;;;15.39;89.28;99561.88;5003761;28;20053;-61
2022/09/17 02:20:05;;;;;;;1.30;0.00;;;;;;;15.08;93.25;99557.13;5000636;28;20036;-63
2022/09/17 02:22:49;;;;;;;0.00;0.00;;;;;;;15.00;87.38;99561.72;4987222;28;20042;-65
2022/09/17 02:26:01;;;;;;;0.55;0.00;;;;;;;14.76;96.80;99582.16;5005913;28;20639;-64
2022/09/17 02:28:50;;;;;;;0.05;0.00;;;;;;;14.36;100.00;99559.28;4996784;28;20128;-64
2022/09/17 02:31:15;;;;;;;0.00;0.00;;;;;;;14.35;99.00;99566.34;5007488;28;20042;-66
2022/09/17 02:33:47;;;;;;;0.05;0.00;;;;;;;14.54;95.63;99547.38;5006187;28;20041;-62
2022/09/17 02:36:12;;;;;;;0.35;0.00;;;;;;;14.57;94.60;99546.97;5010022;28;20104;-61
2022/09/17 02:38:42;;;;;;;0.00;0.00;;;;;;;14.48;97.05;99563.03;5005168;28;20228;-66
2022/09/17 02:41:18;;;;;;;0.10;0.00;;;;;;;14.35;98.03;99539.34;5008130;28;20113;-67
2022/09/17 02:44:03;;;;;;;2.63;0.00;;;;;;;14.45;94.19;99539.84;5010639;28;20026;-62
2022/09/17 02:46:50;;;;;;;0.10;0.00;;;;;;;14.34;95.25;99538.53;5006383;28;20021;-65
2022/09/17 02:49:28;;;;;;;0.10;0.00;;;;;;;14.38;98.73;99538.94;5001328;28;20038;-62
2022/09/17 02:52:09;;;;;;;0.38;0.00;;;;;;;14.37;96.89;99513.75;5007573;28;20277;-63
2022/09/17 02:54:43;;;;;;;0.35;0.00;;;;;;;14.38;97.43;99533.72;5006623;28;20037;-64
2022/09/17 02:57:26;;;;;;;1.70;0.00;;;;;;;14.24;93.57;99512.66;5006379;28;20042;-66
2022/09/17 02:59:54;;;;;;;0.30;0.00;;;;;;;14.51;96.20;99539.88;5007022;28;20042;-62
2022/09/17 03:02:26;;;;;;;0.10;0.00;;;;;;;14.46;98.31;99525.72;5008869;28;20454;-63
2022/09/17 03:04:54;;;;;;;0.00;0.00;;;;;;;14.48;97.34;99539.47;5003518;28;20041;-67
2022/09/17 03:07:21;;;;;;;0.00;0.00;;;;;;;14.39;100.00;99566.78;5005998;28;20080;-66
2022/09/17 03:09:47;;;;;;;0.08;0.00;;;;;;;14.25;96.90;99589.44;5003285;28;20041;-67
2022/09/17 03:12:13;;;;;;;0.30;0.10;;;;;;;14.59;96.58;99559.91;5006530;28;20026;-67
2022/09/17 03:14:38;;;;;;;0.68;0.00;;;;;;;14.64;92.63;99575.88;5006691;28;20034;-64
2022/09/17 03:17:03;;;;;;;0.15;0.00;;;;;;;14.80;92.46;99551.94;5009032;28;20074;-65
2022/09/17 03:19:29;;;;;;;0.00;0.00;;;;;;;14.72;90.96;99587.97;5004377;28;20405;-63
2022/09/17 03:21:54;;;;;;;0.00;0.00;;;;;;;14.68;93.09;99592.00;5006332;28;20654;-65
2022/09/17 03:24:20;;;;;;;0.50;0.00;;;;;;;14.55;95.73;99577.00;5004152;28;20038;-63
2022/09/17 03:26:49;;;;;;;0.30;0.10;;;;;;;14.35;98.76;99557.66;5005189;28;20109;-63
2022/09/17 03:29:15;;;;;;;0.17;0.08;;;;;;;14.26;94.57;99570.91;4989273;28;20501;-65
2022/09/17 03:31:41;;;;;;;0.10;0.00;;;;;;;14.26;96.72;99557.81;5004034;28;20109;-65
2022/09/17 03:34:06;;;;;;;0.30;0.00;;;;;;;14.13;97.05;99578.69;5002948;28;20112;-64
2022/09/17 03:36:33;;;;;;;0.55;0.38;;;;;;;14.04;99.25;99577.19;5005918;28;20034;-64
2022/09/17 03:38:59;;;;;;;2.28;0.10;;;;;;;13.94;97.91;99574.06;5003351;28;20034;-68
2022/09/17 03:41:24;;;;;;;0.57;0.00;;;;;;;13.92;96.71;99578.69;5009860;28;20053;-62
2022/09/17 03:43:50;;;;;;;0.65;0.10;;;;;;;13.81;98.52;99569.50;5006557;28;20124;-66
2022/09/17 03:46:16;;;;;;;0.25;0.10;;;;;;;13.85;97.09;99570.75;5005583;28;20099;-64
2022/09/17 03:48:42;;;;;;;0.30;0.10;;;;;;;13.88;96.07;99548.63;5001232;28;20111;-63
2022/09/17 03:51:07;;;;;;;0.30;0.00;;;;;;;13.84;95.61;99547.38;5005216;28;20619;-68
2022/09/17 03:53:33;;;;;;;0.43;0.00;;;;;;;13.84;96.28;99537.72;5009206;28;20049;-68
2022/09/17 03:56:00;;;;;;;0.17;0.00;;;;;;;13.87;96.73;99552.25;5013591;28;20025;-64
2022/09/17 03:58:27;;;;;;;0.10;0.00;;;;;;;13.93;94.30;99543.66;5010483;28;20038;-64
2022/09/17 04:00:54;;;;;;;0.20;0.00;;;;;;;14.16;89.58;99567.03;5010494;28;20026;-65
2022/09/17 04:03:20;;;;;;;0.35;0.10;;;;;;;14.30;89.08;99581.81;4990218;28;20057;-66
2022/09/17 04:05:46;;;;;;;0.70;0.10;;;;;;;14.39;87.25;99601.66;5009702;28;20564;-67
2022/09/17 04:08:11;;;;;;;0.32;0.05;;;;;;;14.40;89.48;99615.56;5007252;28;20457;-60
2022/09/17 04:10:37;;;;;;;0.40;0.00;;;;;;;14.50;86.20;99595.94;5009425;28;20469;-66
2022/09/17 04:13:02;;;;;;;0.10;0.00;;;;;;;14.46;87.78;99604.34;5010346;28;20037;-64
2022/09/17 04:15:28;;;;;;;0.25;0.10;;;;;;;14.46;88.23;99604.34;5007781;28;20030;-66
2022/09/17 04:17:56;;;;;;;0.20;0.00;;;;;;;14.27;90.99;99596.09;5006876;28;20034;-66
2022/09/17 04:20:25;;;;;;;0.15;0.00;;;;;;;14.07;95.55;99595.16;5006561;28;20034;-66
2022/09/17 04:22:52;;;;;;;1.92;0.10;;;;;;;13.93;94.71;99580.31;5007674;28;20049;-64
2022/09/17 04:25:17;;;;;;;0.20;0.00;;;;;;;13.81;91.43;99580.00;5011314;28;20048;-67
2022/09/17 04:27:44;;;;;;;0.10;0.00;;;;;;;13.79;95.18;99570.69;5008485;28;20396;-63
2022/09/17 04:30:10;;;;;;;0.13;0.10;;;;;;;13.63;95.88;99557.88;5010636;28;20036;-66
2022/09/17 04:32:36;;;;;;;0.20;0.10;;;;;;;13.59;95.85;99553.00;5008223;28;20041;-65
2022/09/17 04:35:02;;;;;;;0.20;0.00;;;;;;;13.39;96.56;99544.13;5012800;28;20056;-63
2022/09/17 04:37:28;;;;;;;0.10;0.00;;;;;;;13.35;97.95;99534.22;5008575;28;20073;-63
2022/09/17 04:39:53;;;;;;;0.10;0.00;;;;;;;13.34;96.84;99519.50;5008215;28;20410;-66
2022/09/17 04:42:19;;;;;;;0.10;0.00;;;;;;;13.28;97.30;99516.63;5010253;28;20055;-66
2022/09/17 04:44:44;;;;;;;0.20;0.03;;;;;;;13.21;97.96;99512.34;5012232;28;20069;-65
2022/09/17 04:47:10;;;;;;;1.55;0.10;;;;;;;13.23;95.78;99526.06;5009352;28;20029;-64
2022/09/17 04:49:35;;;;;;;0.55;0.20;;;;;;;13.31;96.30;99525.94;5008634;28;20080;-62
2022/09/17 04:52:01;;;;;;;0.30;0.10;;;;;;;13.27;95.28;99514.19;5003157;28;20372;-66
2022/09/17 04:54:26;;;;;;;0.95;0.20;;;;;;;13.27;92.89;99538.56;5007163;28;20052;-69
2022/09/17 04:56:52;;;;;;;0.60;0.10;;;;;;;13.18;94.75;99544.09;5009339;28;20528;-64
2022/09/17 04:59:17;;;;;;;1.48;0.55;;;;;;;13.27;93.43;99529.91;5009394;28;20058;-66
2022/09/17 05:01:43;;;;;;;1.58;0.10;;;;;;;13.21;94.47;99534.09;5006385;28;20474;-64
2022/09/17 05:04:09;;;;;;;0.60;0.10;;;;;;;13.35;92.29;99544.69;5003891;28;20442;-66
2022/09/17 05:06:35;;;;;;;0.35;0.10;;;;;;;13.44;89.13;99567.13;5011642;28;20065;-68
2022/09/17 05:09:01;;;;;;;1.88;0.10;;;;;;;13.22;92.89;99529.66;5010111;28;20454;-65
2022/09/17 05:11:27;;;;;;;0.38;0.10;;;;;;;13.15;93.94;99518.28;4992189;28;20541;-65
2022/09/17 05:13:53;;;;;;;0.45;0.10;;;;;;;13.15;94.45;99552.28;4992740;28;20022;-68
2022/09/17 05:16:19;;;;;;;1.13;0.20;;;;;;;13.18;95.37;99554.56;5008359;28;20030;-63
2022/09/17 05:18:45;;;;;;;0.38;0.10;;;;;;;13.17;95.88;99566.03;5002700;28;20398;-62
2022/09/17 05:21:10;;;;;;;0.20;0.10;;;;;;;13.06;99.07;99576.91;5006812;28;20021;-66
2022/09/17 05:23:36;;;;;;;0.52;0.00;;;;;;;13.09;96.49;99571.31;5008561;28;20447;-65
2022/09/17 05:26:01;;;;;;;0.43;0.00;;;;;;;13.36;94.55;99559.38;5007441;28;20036;-66
2022/09/17 05:28:27;;;;;;;0.20;0.08;;;;;;;13.27;96.41;99571.75;4992250;28;20548;-67
2022/09/17 05:30:53;;;;;;;0.20;0.00;;;;;;;13.12;97.17;99527.31;5007049;28;20034;-64
2022/09/17 05:33:19;;;;;;;0.70;0.00;;;;;;;13.22;95.25;99501.72;4989251;28;20026;-66
2022/09/17 05:35:45;;;;;;;0.20;0.00;;;;;;;13.19;95.35;99496.03;5007320;28;20064;-64
2022/09/17 05:38:10;;;;;;;0.10;0.00;;;;;;;13.15;95.93;99506.03;5005631;28;21862;-65
2022/09/17 05:40:38;;;;;;;0.30;0.10;;;;;;;13.16;96.60;99517.31;5009463;28;20117;-62
2022/09/17 05:43:05;;;;;;;0.52;0.00;;;;;;;13.15;94.13;99533.97;5010122;28;20045;-68
2022/09/17 05:45:35;;;;;;;0.32;0.00;;;;;;;13.23;94.10;99544.38;5010356;28;20048;-65
2022/09/17 05:48:01;;;;;;;0.40;0.00;;;;;;;13.22;93.69;99564.47;5007417;28;20021;-65
2022/09/17 05:50:28;;;;;;;0.10;0.00;;;;;;;13.18;96.17;99593.81;5009667;28;20021;-65
2022/09/17 05:52:54;;;;;;;0.20;0.00;;;;;;;13.26;94.82;99604.13;4996506;28;20056;-66
2022/09/17 05:55:21;;;;;;;0.40;0.10;;;;;;;13.15;96.57;99612.44;5008494;28;20780;-64
2022/09/17 05:57:47;;;;;;;0.20;0.00;;;;;;;13.04;97.59;99629.38;5012256;28;20121;-64
2022/09/17 06:00:13;;;;;;;0.10;0.00;;;;;;;13.14;91.17;99632.56;5007362;28;20417;-63
2022/09/17 06:02:39;;;;;;;0.10;0.00;;;;;;;13.14;92.39;99614.25;4991816;28;20053;-66
2022/09/17 06:05:05;;;;;;;0.10;0.00;;;;;;;13.13;92.12;99590.88;5010546;28;20524;-66
2022/09/17 06:07:30;;;;;;;0.10;0.00;;;;;;;13.02;93.25;99613.06;5008993;28;20099;-67
2022/09/17 06:09:56;;;;;;;0.10;0.00;;;;;;;12.86;93.74;99611.44;5006696;28;20033;-63
2022/09/17 06:12:22;;;;;;;0.10;0.00;;;;;;;12.95;93.51;99572.94;5008011;28;20034;-61
2022/09/17 06:14:47;;;;;;;0.00;0.00;;;;;;;12.90;96.01;99615.31;5011337;28;20068;-63
2022/09/17 06:17:13;;;;;;;0.20;0.00;;;;;;;12.70;97.45;99624.69;5006140;28;20073;-65
2022/09/17 06:19:39;;;;;;;0.00;0.00;;;;;;;12.66;96.88;99627.84;5006712;28;20082;-64
2022/09/17 06:22:04;;;;;;;0.30;0.00;;;;;;;12.50;99.91;99631.41;5007837;28;20092;-64
2022/09/17 06:24:31;;;;;;;0.10;0.00;;;;;;;12.60;96.98;99639.81;5008838;28;20022;-62
2022/09/17 06:26:56;;;;;;;0.00;0.00;;;;;;;12.47;99.09;99689.22;5004581;28;20034;-68
2022/09/17 06:29:22;;;;;;;0.10;0.03;;;;;;;12.38;100.00;99719.81;5005412;28;20029;-65
2022/09/17 06:31:48;;;;;;;0.13;0.00;;;;;;;12.21;100.00;99789.66;5002033;28;20029;-62
2022/09/17 06:34:13;;;;;;;0.68;0.00;;;;;;;12.12;100.00;99832.47;5006954;28;20466;-67
2022/09/17 06:36:39;;;;;;;0.30;0.00;;;;;;;11.98;100.00;99872.31;5009161;28;20201;-65
2022/09/17 06:39:05;;;;;;;0.00;0.00;;;;;;;12.18;100.00;99857.91;5008294;28;20065;-63
2022/09/17 06:41:30;;;;;;;0.10;0.00;;;;;;;12.29;100.00;99828.75;5005309;28;20452;-65
2022/09/17 06:43:56;;;;;;;0.00;0.00;;;;;;;12.10;100.00;99794.44;5007541;28;20116;-68
2022/09/17 06:46:21;;;;;;;0.70;0.00;;;;;;;12.07;100.00;99792.16;5006293;28;20441;-64
2022/09/17 06:48:47;;;;;;;0.17;0.00;;;;;;;12.16;100.00;99810.25;5011452;28;20418;-67
2022/09/17 06:51:13;;;;;;;0.10;0.00;;;;;;;12.18;100.00;99778.75;5005353;28;20029;-64
2022/09/17 06:53:39;;;;;;;0.20;0.00;;;;;;;12.16;100.00;99789.34;4989730;28;20030;-68
2022/09/17 06:56:07;;;;;;;0.00;0.00;;;;;;;12.13;100.00;99796.72;4989166;28;20038;-69
2022/09/17 06:58:36;;;;;;;0.20;0.00;;;;;;;12.13;100.00;99796.72;5005369;28;20153;-67
2022/09/17 07:01:02;;;;;;;0.05;0.00;;;;;;;11.98;100.00;99780.94;4983143;28;20029;-66
2022/09/17 07:03:29;;;;;;;0.30;0.00;;;;;;;12.01;100.00;99788.44;5003797;28;20057;-66
2022/09/17 07:05:55;;;;;;;0.05;0.00;;;;;;;11.86;100.00;99797.94;5011106;28;20500;-65
2022/09/17 07:08:21;;;;;;;0.10;0.00;;;;;;;11.79;100.00;99810.06;5008227;28;20057;-68
2022/09/17 07:10:47;;;;;;;0.40;0.08;;;;;;;11.84;100.00;99812.97;5011339;28;20388;-65
2022/09/17 07:13:12;;;;;;;0.20;0.00;;;;;;;11.85;100.00;99814.59;5006031;28;20490;-63
2022/09/17 07:15:38;;;;;;;0.10;0.00;;;;;;;11.73;100.00;99826.38;5005671;28;20048;-62
2022/09/17 07:18:08;;;;;;;0.15;0.00;;;;;;;11.66;100.00;99826.22;4999317;28;20097;-67
2022/09/17 07:20:34;;;;;;;0.20;0.00;;;;;;;11.64;100.00;99831.59;4982759;28;20061;-65
2022/09/17 07:23:00;;;;;;;0.10;0.00;;;;;;;11.63;100.00;99816.13;5003041;28;20045;-69
2022/09/17 07:25:25;;;;;;;0.10;0.00;;;;;;;11.54;100.00;99833.56;5002176;28;20042;-64
2022/09/17 07:27:51;;;;;;;0.38;0.00;;;;;;;11.57;100.00;99832.44;5005454;28;20460;-65
2022/09/17 07:30:18;;;;;;;0.03;0.00;;;;;;;11.76;100.00;99845.13;5006914;28;20368;-63
2022/09/17 07:32:43;;;;;;;0.00;0.00;;;;;;;11.77;100.00;99875.50;5012142;28;20048;-66
2022/09/17 07:35:09;;;;;;;1.20;0.00;;;;;;;11.78;100.00;99902.41;5007553;28;20071;-65
2022/09/17 07:37:35;;;;;;;2.92;0.00;;;;;;;11.59;100.00;99911.34;5007557;28;20038;-63
2022/09/17 07:40:00;;;;;;;0.25;0.00;;;;;;;11.47;100.00;99913.47;5010118;28;20022;-65
2022/09/17 07:42:26;;;;;;;0.10;0.00;;;;;;;11.38;100.00;99914.44;5008572;28;20037;-62
2022/09/17 07:44:52;;;;;;;0.20;0.00;;;;;;;11.35;100.00;99913.94;5008826;28;20104;-66
2022/09/17 07:47:18;;;;;;;2.35;0.10;;;;;;;11.29;100.00;99921.47;5011723;28;20029;-64
2022/09/17 07:49:44;;;;;;;7.78;0.20;;;;;;;11.29;100.00;99913.66;4978023;28;20115;-65
2022/09/17 07:52:10;;;;;;;2.53;0.10;;;;;;;11.32;100.00;99922.94;5013554;28;20050;-63
2022/09/17 07:54:38;;;;;;;0.90;0.10;;;;;;;11.38;100.00;99932.69;5010933;28;20065;-66
2022/09/17 07:57:03;;;;;;;0.65;0.10;;;;;;;11.40;100.00;99937.75;5010497;28;20521;-66
2022/09/17 07:59:29;;;;;;;0.40;0.00;;;;;;;11.52;100.00;99934.66;5008441;28;20416;-65
2022/09/17 08:01:54;;;;;;;0.95;0.00;;;;;;;11.55;100.00;99939.56;5008107;28;20037;-67
2022/09/17 08:04:21;;;;;;;0.45;0.17;;;;;;;11.49;100.00;99961.09;4991666;28;20453;-71
2022/09/17 08:06:49;;;;;;;2.25;0.10;;;;;;;11.45;100.00;99979.81;5008862;28;20042;-64
2022/09/17 08:09:16;;;;;;;0.30;0.00;;;;;;;11.42;100.00;99986.19;5011273;28;20081;-66
2022/09/17 08:11:42;;;;;;;0.40;0.10;;;;;;;11.38;100.00;99982.25;5008648;28;20172;-62
2022/09/17 08:14:14;;;;;;;1.63;0.10;;;;;;;11.42;100.00;99980.16;4992292;28;20105;-64
2022/09/17 08:16:39;;;;;;;1.88;0.20;;;;;;;11.39;100.00;99981.28;5004844;28;20036;-69
2022/09/17 08:19:05;;;;;;;2.60;0.10;;;;;;;11.43;100.00;99987.81;5005485;28;20030;-63
2022/09/17 08:21:31;;;;;;;2.30;0.20;;;;;;;11.41;100.00;99992.38;5012651;28;20175;-61
2022/09/17 08:23:57;;;;;;;2.53;0.20;;;;;;;11.47;100.00;99985.69;5007687;28;20026;-65
2022/09/17 08:26:24;;;;;;;0.22;0.03;;;;;;;11.44;100.00;99967.75;5005435;28;20113;-67
2022/09/17 08:28:53;;;;;;;0.10;0.00;;;;;;;11.40;100.00;99945.59;4983326;28;20022;-67
2022/09/17 08:32:03;;;;;;;0.55;0.00;;;;;;;11.40;100.00;99925.53;5108534;27;20311;-67
2022/09/17 08:34:29;;;;;;;0.17;0.00;;;;;;;11.29;100.00;99941.53;5105715;28;20227;-68
2022/09/17 08:36:54;;;;;;;0.13;0.00;;;;;;;11.16;100.00;99954.22;5104141;28;20034;-63
2022/09/17 08:39:20;;;;;;;0.10;0.00;;;;;;;11.17;100.00;99945.41;5104748;28;20484;-60
2022/09/17 08:42:05;;;;;;;0.40;0.00;;;;;;;11.17;100.00;99925.38;5094349;28;20498;-67
2022/09/17 08:44:44;;;;;;;0.10;0.00;;;;;;;11.14;100.00;99906.63;5090556;28;20958;-67
2022/09/17 08:47:35;;;;;;;0.45;0.00;;;;;;;11.14;100.00;99890.97;5102574;28;20490;-67
2022/09/17 08:50:11;;;;;;;0.50;0.00;;;;;;;11.13;100.00;99891.97;5091699;28;20039;-64
2022/09/17 08:52:58;;;;;;;0.00;0.00;;;;;;;11.18;100.00;99889.69;5086614;28;20098;-68
2022/09/17 08:55:33;;;;;;;0.00;0.00;;;;;;;11.17;100.00;99908.91;5092782;28;20058;-67
2022/09/17 08:58:19;;;;;;;0.22;0.00;;;;;;;11.16;100.00;99913.31;5084787;28;20046;-66
2022/09/17 09:00:54;;;;;;;0.13;0.00;;;;;;;11.18;100.00;99906.16;5101037;28;20035;-63
2022/09/17 09:04:02;;;;;;;0.00;0.00;;;;;;;11.15;100.00;99905.66;5104312;28;20032;-64
2022/09/17 09:06:33;;;;;;;0.20;0.00;;;;;;;11.14;100.00;99910.03;5090623;28;20039;-68
2022/09/17 09:09:04;;;;;;;0.70;0.03;;;;;;;11.20;100.00;99908.59;5101801;28;20344;-66
2022/09/17 09:11:30;;;;;;;0.00;0.00;;;;;;;11.27;100.00;99923.44;5085794;28;20040;-65
2022/09/17 09:14:30;;;;;;;0.90;0.00;;;;;;;11.29;100.00;99920.66;5085064;28;20024;-71
2022/09/17 09:16:56;;;;;;;0.10;0.00;;;;;;;11.17;100.00;99921.94;5084893;28;20098;-67
2022/09/17 09:19:32;;;;;;;0.00;0.00;;;;;;;11.14;100.00;99896.19;5084322;28;20145;-66
2022/09/17 09:22:03;;;;;;;0.00;0.00;;;;;;;11.14;100.00;99904.84;5084653;28;20032;-63
2022/09/17 09:25:04;;;;;;;0.00;0.00;;;;;;;11.18;100.00;99906.16;5083658;28;20063;-65
2022/09/17 09:27:45;;;;;;;0.25;0.00;;;;;;;11.18;100.00;99907.94;5083639;28;20039;-69
2022/09/17 09:30:14;;;;;;;0.20;0.00;;;;;;;11.17;100.00;99914.94;5084353;28;20056;-64
2022/09/17 09:33:22;;;;;;;0.28;0.00;;;;;;;11.06;100.00;99922.25;5084481;28;20043;-67
2022/09/17 09:35:48;;;;;;;0.10;0.00;;;;;;;11.01;100.00;99906.28;5100946;28;20147;-63
2022/09/17 09:38:32;;;;;;;0.65;0.00;;;;;;;10.95;100.00;99905.94;5088698;28;20103;-66
2022/09/17 09:41:11;;;;;;;0.10;0.00;;;;;;;10.97;100.00;99906.59;5082900;28;20040;-64
2022/09/17 09:43:52;;;;;;;1.45;0.00;;;;;;;11.05;100.00;99916.22;5082018;28;20483;-65
2022/09/17 09:46:47;;;;;;;0.20;0.00;;;;;;;10.94;100.00;99935.59;5096513;28;20087;-63
2022/09/17 09:49:21;;;;;;;0.03;0.00;;;;;;;11.13;100.00;99951.91;5078169;28;20036;-65
2022/09/17 09:52:17;;;;;;;0.00;0.00;;;;;;;11.27;100.00;99956.50;5082195;28;20470;-65
2022/09/17 09:55:10;;;;;;;0.00;0.00;;;;;;;11.19;100.00;99969.53;5084901;28;20053;-65
2022/09/17 09:57:41;;;;;;;0.20;0.00;;;;;;;11.17;100.00;99968.88;5097058;28;20439;-66
2022/09/17 10:00:23;;;;;;;0.40;0.00;;;;;;;11.16;100.00;99949.00;5097357;28;20412;-64
2022/09/17 10:02:54;;;;;;;0.10;0.00;;;;;;;11.07;100.00;99963.00;5094341;28;20023;-69
2022/09/17 10:05:19;;;;;;;0.13;0.00;;;;;;;11.01;100.00;99977.47;5089152;28;20222;-71
2022/09/17 10:07:45;;;;;;;0.00;0.00;;;;;;;10.98;100.00;99965.56;5088636;28;20610;-69
2022/09/17 10:10:11;;;;;;;0.10;0.00;;;;;;;10.96;100.00;99957.09;5077972;28;20028;-67
2022/09/17 10:12:37;;;;;;;2.92;0.00;;;;;;;10.94;100.00;99938.19;5091167;28;20032;-61
2022/09/17 10:15:26;;;;;;;0.08;0.00;;;;;;;10.92;100.00;99937.53;5068501;28;20035;-67
2022/09/17 10:18:14;;;;;;;0.55;0.00;;;;;;;11.04;100.00;99914.59;5079864;28;20047;-68
2022/09/17 10:21:00;;;;;;;0.10;0.00;;;;;;;11.15;100.00;99898.63;5077249;28;20021;-64
2022/09/17 10:23:32;;;;;;;1.30;0.00;;;;;;;11.29;100.00;99860.69;5078805;28;20120;-68
2022/09/17 10:25:58;;;;;;;0.10;0.00;;;;;;;11.38;100.00;99838.81;5074161;28;20115;-69
2022/09/17 10:28:30;;;;;;;0.10;0.00;;;;;;;11.17;100.00;99804.63;5072875;28;20476;-68
2022/09/17 10:31:04;;;;;;;0.10;0.00;;;;;;;11.06;100.00;99778.88;5069532;28;20052;-66
2022/09/17 10:33:31;;;;;;;0.10;0.00;;;;;;;11.00;100.00;99745.66;5069328;28;20845;-68
2022/09/17 10:36:05;;;;;;;0.10;0.00;;;;;;;10.96;100.00;99690.41;5067480;28;20039;-68
2022/09/17 10:38:34;;;;;;;0.13;0.00;;;;;;;10.98;100.00;99660.59;5069170;28;20101;-67
2022/09/17 10:41:20;;;;;;;0.17;0.00;;;;;;;10.98;99.74;99647.56;5076889;28;20032;-66
2022/09/17 10:43:47;;;;;;;0.00;0.00;;;;;;;11.17;98.88;99662.03;5072799;28;20028;-65
2022/09/17 10:46:27;;;;;;;0.10;0.00;;;;;;;11.16;96.13;99655.19;5075154;28;20032;-63
2022/09/17 10:49:08;;;;;;;1.35;0.00;;;;;;;11.05;95.04;99595.59;5081448;28;20514;-67
2022/09/17 10:51:33;;;;;;;0.10;0.00;;;;;;;11.17;96.53;99604.69;5082072;28;20044;-65
2022/09/17 10:54:08;;;;;;;0.00;0.00;;;;;;;11.38;94.71;99564.16;5080614;28;20028;-66
2022/09/17 10:56:36;;;;;;;0.00;0.00;;;;;;;11.66;89.99;99580.13;5095513;28;20055;-67
2022/09/17 10:59:26;;;;;;;1.20;0.00;;;;;;;11.79;87.19;99544.69;5081079;28;20078;-67
2022/09/17 11:02:22;;;;;;;1.45;0.00;;;;;;;11.86;86.21;99550.81;5078991;28;20047;-65
2022/09/17 11:04:48;;;;;;;0.75;0.00;;;;;;;12.03;90.29;99559.34;5084544;27;20027;-62
2022/09/17 11:07:19;;;;;;;1.23;0.00;;;;;;;12.16;89.57;99596.13;5078786;28;20032;-65
2022/09/17 11:09:51;;;;;;;0.30;0.00;;;;;;;12.40;86.17;99617.78;5081488;28;20423;-63
2022/09/17 11:12:54;;;;;;;0.10;0.00;;;;;;;12.34;79.16;99636.75;5084845;28;20435;-64
2022/09/17 11:15:35;;;;;;;0.08;0.00;;;;;;;12.46;86.84;99643.19;5085493;28;20372;-64
2022/09/17 11:18:31;;;;;;;1.20;0.00;;;;;;;12.52;79.30;99632.03;5069595;28;20040;-66
2022/09/17 11:21:02;;;;;;;0.05;0.00;;;;;;;12.63;85.08;99624.59;5075505;28;20024;-66
2022/09/17 11:23:50;;;;;;;0.05;0.00;;;;;;;12.85;79.72;99635.16;5089209;28;20111;-63
2022/09/17 11:26:31;;;;;;;0.10;0.00;;;;;;;12.80;82.08;99651.38;5075090;28;20029;-61
2022/09/17 11:29:15;;;;;;;1.45;0.00;;;;;;;13.06;79.20;99674.47;5068627;28;20032;-64
2022/09/17 11:32:19;;;;;;;0.90;0.00;;;;;;;13.27;79.20;99676.38;5084921;28;20052;-61
2022/09/17 11:35:10;;;;;;;0.10;0.10;;;;;;;13.09;86.35;99676.75;5052945;28;20055;-64
2022/09/17 11:37:42;;;;;;;0.32;0.00;;;;;;;12.81;91.81;99673.91;5082022;28;20027;-66
2022/09/17 11:40:08;;;;;;;0.00;0.00;;;;;;;12.64;96.27;99677.66;5067034;28;20032;-64
2022/09/17 11:42:54;;;;;;;0.00;0.00;;;;;;;12.56;97.98;99701.25;5069028;28;20549;-63
2022/09/17 11:45:49;;;;;;;0.95;0.00;;;;;;;12.51;99.34;99700.97;5068891;28;20444;-63
2022/09/17 11:48:21;;;;;;;0.10;0.00;;;;;;;12.52;100.00;99710.44;5074327;28;20039;-63
2022/09/17 11:50:53;;;;;;;1.30;0.00;;;;;;;12.48;100.00;99719.59;5087569;28;20038;-62